Flight Track Log - Related Links

Times and Time Zones

All times are in EDT time to prevent confusion due to time zone crossing. See the N273SK flight status page for this flight to view local times or setup timezone preferences in your user account.

Time Position Orientation Groundspeed Altitude Reporting Facility
EDT Latitude Longitude Course Direction KTS MPH feet Rate Location/Type
Wed 06:11:19 AM 37.4683 -77.3161 253° West 166 191 2,300  Level Washington Center
Wed 06:12:19 AM 37.4531 -77.3733 251° West 186 214 4,900 2,650 Climbing Washington Center
Wed 06:13:00 AM 37.4092 -77.6747 257° West  Level FlightAware Approximate
Wed 06:13:19 AM 37.4436 -77.4439 260° West 197 227 7,600  Level Washington Center
Wed 06:14:00 AM 37.3868 -77.7977 257° West  Level FlightAware Approximate
Wed 06:14:19 AM 37.4319 -77.5194 259° West 215 247 10,200  Level Washington Center
Wed 06:15:00 AM 37.3605 -77.9195 254° West  Level FlightAware Approximate
Wed 06:15:19 AM 37.4203 -77.5950 259° West 220 253 12,800  Level Washington Center
Wed 06:16:00 AM 37.3435 -78.0426 253° West  Level FlightAware Approximate
Wed 06:16:19 AM 37.4086 -77.6703 259° West 220 253 15,200  Level Washington Center
Wed 06:17:19 AM 37.3967 -77.7486 259° West 220 253 17,400 1,950 Climbing Washington Center
Wed 06:18:19 AM 37.3847 -77.8319 260° West 231 266 19,100 2,050 Climbing Washington Center
Wed 06:19:19 AM 37.3708 -77.9150 258° West 242 278 21,500 1,450 Climbing Washington Center
Wed 06:20:19 AM 37.3522 -78.0086 256° West 254 292 22,000 250 Climbing Washington Center
Wed 06:21:19 AM 37.3292 -78.1150 255° West 290 334 22,000  Level Washington Center
Wed 06:22:19 AM 37.3103 -78.2161 257° West 321 369 22,000  Level Washington Center
Wed 06:23:19 AM 37.2994 -78.3281 263° West 332 382 22,000  Level Washington Center
Wed 06:24:19 AM 37.3536 -78.4214 306° West 312 359 22,000  Level Washington Center
Wed 06:25:19 AM 37.4286 -78.5106 317° Northwest 321 369 22,000 650 Level Washington Center
Wed 06:26:19 AM 37.4956 -78.5917 316° Northwest 328 377 23,300 1,400 Climbing Washington Center
Wed 06:27:19 AM 37.5642 -78.6781 315° West 339 390 24,800 1,450 Climbing Washington Center
Wed 06:28:19 AM 37.6328 -78.7650 315° West 349 402 26,200 1,400 Climbing Washington Center
Wed 06:29:19 AM 37.6933 -78.8408 315° West 354 407 27,600 900 Climbing Washington Center
Wed 06:30:19 AM 37.7639 -78.9333 314° West 354 407 28,000 200 Climbing Washington Center
Wed 06:31:19 AM 37.8386 -79.0206 317° Northwest 354 407 28,000  Level Washington Center
Wed 06:32:19 AM 37.9083 -79.1344 308° West 365 420 28,000  Level Washington Center
Wed 06:33:19 AM 37.9314 -79.2644 283° West 365 420 28,000  Level Washington Center
Wed 06:34:19 AM 37.9544 -79.3972 282° West 376 433 28,000  Level Washington Center
Wed 06:35:19 AM 37.9756 -79.5169 283° West 387 445 28,000  Level Washington Center
Wed 06:36:19 AM 37.9983 -79.6500 282° West 392 451 28,000  Level Washington Center
Wed 06:37:19 AM 38.0228 -79.7831 283° West 392 451 28,000  Level Washington Center
Wed 06:38:19 AM 38.0469 -79.9267 282° West 392 451 28,000  Level Washington Center
Wed 06:39:19 AM 38.0692 -80.0572 282° West 392 451 28,000  Level Washington Center
Wed 06:40:19 AM 38.0914 -80.1906 282° West 392 451 28,000  Level Washington Center
Wed 06:41:19 AM 38.1131 -80.3264 282° West 392 451 28,000  Level Washington Center
Wed 06:43:39 AM 38.1644 -80.6233 283° West 384 442 28,000  Level Indianapolis Center
Wed 06:44:40 AM 38.1867 -80.7553 282° West 382 440 28,000  Level Indianapolis Center
Wed 06:45:41 AM 38.2092 -80.8875 282° West 382 440 28,000  Level Indianapolis Center
Wed 06:46:41 AM 38.2308 -81.0203 282° West 382 440 28,000  Level Indianapolis Center
Wed 06:47:42 AM 38.2525 -81.1522 282° West 381 438 28,000  Level Indianapolis Center
Wed 06:48:43 AM 38.2869 -81.2806 289° West 388 447 28,000  Level Indianapolis Center
Wed 06:49:44 AM 38.3814 -81.3492 330° Northwest 407 468 28,000  Level Indianapolis Center
Wed 06:50:44 AM 38.4897 -81.3897 344° North 406 467 28,000  Level Indianapolis Center
Wed 06:51:45 AM 38.5981 -81.4303 344° North 406 467 28,000  Level Indianapolis Center
Wed 06:52:46 AM 38.7117 -81.4753 343° North 407 468 28,000  Level Indianapolis Center
Wed 06:53:47 AM 38.8300 -81.5200 344° North 410 472 28,000  Level Indianapolis Center
Wed 06:54:47 AM 38.9389 -81.5614 344° North 409 471 28,000  Level Indianapolis Center
Wed 06:55:48 AM 39.0483 -81.6042 343° North 410 472 28,000  Level Indianapolis Center
Wed 06:56:49 AM 39.1583 -81.6469 343° North 412 474 28,000  Level Indianapolis Center
Wed 06:57:50 AM 39.2686 -81.6886 344° North 413 475 28,000  Level Indianapolis Center
Wed 06:58:51 AM 39.3794 -81.7319 343° North 416 479 28,000  Level Indianapolis Center
Wed 06:59:52 AM 39.4900 -81.7758 343° North 416 479 28,000  Level Indianapolis Center
Wed 07:00:53 AM 39.6014 -81.8183 344° North 417 480 28,000  Level Indianapolis Center
Wed 07:01:54 AM 39.7233 -81.8644 344° North 418 481 28,000  Level Indianapolis Center
Wed 07:02:55 AM 39.8425 -81.8850 352° North 428 493 28,000  Level Indianapolis Center
Wed 07:03:56 AM 39.9608 -81.9106 351° North 426 490 28,000  Level Indianapolis Center
Wed 07:04:56 AM 40.0658 -81.9756 335° Northwest 412 474 28,000  Level Indianapolis Center
Wed 07:05:57 AM 40.1642 -82.0514 329° Northwest 408 470 28,000  Level Indianapolis Center
Wed 07:06:58 AM 40.2625 -82.1272 330° Northwest 422 486 28,000  Level Indianapolis Center
Wed 07:07:59 AM 40.3683 -82.2081 330° Northwest 434 499 28,000  Level Indianapolis Center
Wed 07:09:00 AM 40.4753 -82.2908 330° Northwest 440 506 28,000  Level Indianapolis Center
Wed 07:10:01 AM 40.5989 -82.3364 344° North 456 525 28,000  Level Indianapolis Center
Wed 07:10:38 AM 40.6869 -82.3656 346° North 447 514 28,000  Level Cleveland Center
Wed 07:11:38 AM 40.8072 -82.3964 349° North 456 525 28,000 -250 Level Cleveland Center
Wed 07:12:38 AM 40.9297 -82.4328 347° North 446 513 27,500 -800 Descending Cleveland Center
Wed 07:13:38 AM 41.0481 -82.4692 347° North 441 507 26,400 -1,500 Descending Cleveland Center
Wed 07:14:38 AM 41.1539 -82.4997 348° North 436 502 24,500 -2,200 Descending Cleveland Center
Wed 07:15:38 AM 41.2444 -82.5686 330° Northwest 395 455 22,000 -2,450 Descending Cleveland Center
Wed 07:16:38 AM 41.3222 -82.6511 321° Northwest 369 425 19,600 -2,350 Descending Cleveland Center
Wed 07:17:38 AM 41.3936 -82.7283 321° Northwest 347 399 17,300 -2,343 Descending Cleveland Center
Wed 07:18:23 AM 41.4531 -82.7883 323° Northwest 307 353 15,500 -2,200 Descending Cleveland Center
Wed 07:18:38 AM 41.4611 -82.7969 321° Northwest 314 361 15,100 -1,967 Descending Cleveland Center
Wed 07:19:24 AM 41.5164 -82.8517 323° Northwest 294 338 13,500 -1,907 Descending Cleveland Center
Wed 07:20:25 AM 41.5756 -82.9203 319° Northwest 277 319 11,700 -1,230 Descending Cleveland Center
Wed 07:21:26 AM 41.6347 -82.9808 323° Northwest 230 265 11,000 -344 Descending Cleveland Center
Wed 07:22:27 AM 41.6836 -83.0328 322° Northwest 231 266 11,000  Level Cleveland Center
Wed 07:23:28 AM 41.7408 -83.0850 326° Northwest 249 287 11,000 -397 Level Cleveland Center
Wed 07:24:28 AM 41.8044 -83.1292 333° Northwest 253 291 10,200 -1,154 Descending Cleveland Center
Wed 07:25:38 AM 41.8406 -83.2003 304° West 204 235 8,500 -1,623 Descending Cleveland Center
Wed 07:26:30 AM 41.8472 -83.2647 278° West 209 241 6,900 -1,646 Descending Cleveland Center
Wed 07:27:31 AM 41.8600 -83.3461 282° West 208 239 5,400 -1,377 Descending Cleveland Center
Wed 07:28:32 AM 41.8706 -83.4247 280° West 216 249 4,100 -689 Descending Cleveland Center
Wed 07:29:33 AM 41.8789 -83.5086 278° West 219 252 4,000 -49 Descending Cleveland Center
Wed 07:30:34 AM 41.9239 -83.5444 329° Northwest 214 246 4,000  Level Cleveland Center
Wed 07:31:35 AM 41.9767 -83.5133 24° Northeast 190 219 4,000  Level Cleveland Center
Wed 07:32:36 AM 42.0233 -83.4817 27° Northeast 190 219 4,000 -197 Level Cleveland Center
Wed 07:33:37 AM 42.0703 -83.4447 30° Northeast 186 214 3,600 -393 Descending Cleveland Center

Login

Don't have an account? Register now (free) for customized features, flight alerts, and more!